Airfield :
LOGIN :

Register | Disclaimer

   EN    FR    IT 

 










Legend :    VFR   Marginal VFR   IFR   Intensive IFR   Very Intensive IFR
Visi :
Ceiling :
>= 8 km
>= 3000ft
5 to 8 km
1000 to 3000 ft
1500m to 5 km
500 to 1000 ft
800 to 1500m
200 to 500 ft
< 800m
< 200 ft
Symbols :   Thunderstorms  Fog  Heavy snow  Heavy precipitations  Wind > 20 kt
SIGMETs :     Misc.  Thunderstorms  Icing  Turbulence  Mountain Waves  Volcanic Ashes







- Airport Elevation : 459 ft
- IATA code : CER
- Download approach charts


LFRC - Cherbourg / Maupertus

CURRENT METAR :
  • 270300Z AUTO 36003KT 9999 SCT026 BKN032 03/01 Q1020

EXPIRED METARs :
  • 270230Z AUTO 03003KT CAVOK 04/01 Q1020
  • 270200Z AUTO VRB03KT 9999 FEW024 04/01 Q1020
  • 270130Z AUTO 02003KT 9999 BKN025 BKN032 BKN050 04/01 Q1020
  • 270100Z AUTO 04003KT 9999 SCT027/// BKN037/// BKN074/// ///TCU 04/M00 Q1020
  • 270030Z AUTO 03006KT 9999 FEW026 SCT043 05/01 Q1020

Expired Forecast.
No reported NOTAMs for that airfield.



MET'MAP, your aeronautical weather chart ! - Copyright ORBIFLY December 2007 - Disclaimer

ORBIFLY MET'MAP TEAM :

Programming & Development : Alexandra Zaïnal
Concept & Development : Baudouin d'Aumeries
Co-Development & Prog : Marc-Olivier Méhu
Technical & hardware support : Manuel Goepfert

Contact : metmap@orbifly.com




SOURCES & CREDITS :

   NOAA